Oriental Lotus — ZGBC3 — position and weather

sailwx.info

Track history (hours):
 
Tides and Currents Weather Stations Pressure Air Temp Water Temp Dewpoint Dewpoint Depression Visibility Wind Speed Wind Dir Waves Ship Positions

Oriental Lotus

Last reported at 2017-Sep-24 03:24 UTC. Time now 2017-Oct-23 00:40 UTC.
Position N 36°25' E 014°38'.
Warning: this ship's position is 28 days out of date.

Length 134 m; draft 5.9 m.

Type: Ship (hazmat cat B). MMSI: 319150000.

Date/timePositionNaut miles runAvg speedWind from/ knotsBaromVisibWave heightAir tempDewpointWater temp
2017-Sep-24 03:24N 36°25' E 014°38'614.1
2017-Sep-24 03:00N 36°27' E 014°31'814.0
2017-Sep-24 02:27N 36°29' E 014°22'614.1
2017-Sep-24 02:00N 36°31' E 014°15'714.1
2017-Sep-24 01:30N 36°33' E 014°06'714.0
2017-Sep-24 01:00N 36°35' E 013°58'1713.9
2017-Sep-23 23:46N 36°40' E 013°37'61213.1
2017-Sep-22 01:10N 36°47' E 000°53'213.6
2017-Sep-22 01:00N 36°47' E 000°51'713.6
2017-Sep-22 00:30N 36°46' E 000°42'713.6
2017-Sep-22 00:00N 36°44' E 000°34'713.4
2017-Sep-21 23:28N 36°43' E 000°25'613.3
2017-Sep-21 23:00N 36°42' E 000°18'713.2
2017-Sep-21 22:31N 36°40' E 000°10'713.3
2017-Sep-21 22:00N 36°39' E 000°02'713.2
2017-Sep-21 21:30N 36°38' W 000°06'713.2
2017-Sep-21 21:00N 36°36' W 000°14'713.2
2017-Sep-21 20:29N 36°35' W 000°23'613.2
2017-Sep-21 20:01N 36°34' W 000°31'713.0
2017-Sep-21 19:30N 36°32' W 000°39'713.0
2017-Sep-21 19:00N 36°31' W 000°47'5813.4
2017-Sep-21 14:40N 36°19' W 001°57'213.4
2017-Sep-21 14:29N 36°19' W 002°00'2313.3
2017-Sep-21 12:44N 36°16' W 002°29'13314.3
2017-Sep-21 03:23N 36°00' W 005°13'615.5
2017-Sep-21 03:01N 35°60' W 005°20'714.8
2017-Sep-21 02:30N 35°58' W 005°29'813.1
2017-Sep-21 01:53N 35°56' W 005°39'411.3
2017-Sep-21 01:30N 35°55' W 005°44'711.6
2017-Sep-21 00:55N 35°55' W 005°53'511.8
2017-Sep-21 00:30N 35°55' W 005°58'6512.6
2017-Sep-20 19:24N 36°04' W 007°17'2013.1
2017-Sep-20 17:53N 36°09' W 007°41'1713.7
2017-Sep-20 16:38N 36°13' W 008°02'214.0
2017-Sep-20 16:31N 36°14' W 008°04'814.0
2017-Sep-20 15:58N 36°16' W 008°13'1114.0
2017-Sep-20 15:10N 36°19' W 008°26'313.7
2017-Sep-20 14:58N 36°19' W 008°30'1713.7
2017-Sep-20 13:43N 36°24' W 008°50'413.9
2017-Sep-20 13:27N 36°25' W 008°55'714.2
2017-Sep-20 13:00N 36°26' W 009°02'1913.6
2017-Sep-20 11:35N 36°34' W 009°25'713.8
2017-Sep-20 11:02N 36°39' W 009°31'114.3
2017-Sep-20 10:58N 36°40' W 009°32'613.9
2017-Sep-20 10:30N 36°45' W 009°37'714.0
2017-Sep-20 10:00N 36°51' W 009°39'714.2
2017-Sep-20 09:31N 36°58' W 009°41'714.3
2017-Sep-20 09:00N 37°05' W 009°43'814.0
2017-Sep-20 08:27N 37°13' W 009°46'713.9
2017-Sep-20 07:57N 37°19' W 009°48'714.3
2017-Sep-20 07:29N 37°26' W 009°50'1014.3
2017-Sep-20 06:45N 37°36' W 009°53'313.9
2017-Sep-20 06:30N 37°40' W 009°54'713.8
2017-Sep-20 05:59N 37°47' W 009°56'613.1
2017-Sep-20 05:30N 37°53' W 009°58'713.5
2017-Sep-20 05:00N 37°59' W 009°60'713.6
2017-Sep-20 04:30N 38°06' W 010°01'713.6
2017-Sep-20 04:00N 38°12' W 010°04'713.9
2017-Sep-20 03:30N 38°19' W 010°06'714.5
2017-Sep-20 03:00N 38°26' W 010°08'714.7
2017-Sep-20 02:30N 38°33' W 010°10'714.4
2017-Sep-20 02:00N 38°40' W 010°12'714.4
2017-Sep-20 01:30N 38°48' W 010°12'714.2
2017-Sep-20 01:00N 38°55' W 010°12'714.4
2017-Sep-20 00:30N 39°02' W 010°12'714.5
2017-Sep-20 00:00N 39°09' W 010°12'814.4
2017-Sep-19 23:28N 39°17' W 010°12'914.2
2017-Sep-19 22:49N 39°26' W 010°12'4714.2
2017-Sep-19 19:31N 40°13' W 010°12'113.9
2017-Sep-19 19:26N 40°14' W 010°12'54713.6
2017-Sep-18 03:11N 48°49' W 005°50'212.7
2017-Sep-18 03:00N 48°51' W 005°48'1412.1
2017-Sep-18 01:53N 48°59' W 005°32'512.4
2017-Sep-18 01:28N 49°02' W 005°25'9013.8
2017-Sep-17 18:58N 49°48' W 003°27'613.1
2017-Sep-17 18:31N 49°51' W 003°19'612.6
2017-Sep-17 18:00N 49°54' W 003°10'612.2
2017-Sep-17 17:30N 49°57' W 003°02'612.0
2017-Sep-17 17:00N 49°59' W 002°53'3412.6
2017-Sep-17 14:21N 50°08' W 002°03'514.4
2017-Sep-17 14:01N 50°09' W 001°56'815.0
2017-Sep-17 13:30N 50°11' W 001°44'815.5
2017-Sep-17 13:01N 50°14' W 001°33'816.0
2017-Sep-17 12:31N 50°16' W 001°21'4615.5
2017-Sep-17 09:32N 50°28' W 000°11'014.4
2017-Sep-17 09:30N 50°28' W 000°10'713.9
2017-Sep-17 09:00N 50°30' E 000°00'713.5
2017-Sep-17 08:30N 50°32' E 000°11'713.2
2017-Sep-17 08:00N 50°34' E 000°21'612.7
2017-Sep-17 07:30N 50°35' E 000°30'612.3
2017-Sep-17 07:00N 50°38' E 000°39'612.8
2017-Sep-17 06:30N 50°42' E 000°47'713.1
2017-Sep-17 06:00N 50°46' E 000°55'713.7
2017-Sep-17 05:30N 50°51' E 001°03'714.5
2017-Sep-17 04:59N 50°56' E 001°11'815.4
2017-Sep-17 04:29N 51°01' E 001°21'815.9
2017-Sep-17 04:00N 51°05' E 001°31'815.8
2017-Sep-17 03:30N 51°10' E 001°40'815.0
2017-Sep-17 03:00N 51°16' E 001°48'714.2
2017-Sep-17 02:30N 51°22' E 001°53'713.5
2017-Sep-17 02:01N 51°28' E 001°59'713.1
2017-Sep-17 01:31N 51°33' E 002°07'612.7
2017-Sep-17 01:00N 51°37' E 002°14'5711.4
2017-Sep-16 20:00N 52°03' E 003°36'713.3
2017-Sep-16 19:30N 52°03' E 003°47'5 9.9
2017-Sep-16 19:01N 52°02' E 003°55'611.5
2017-Sep-16 18:31N 51°59' E 004°03'611.3
2017-Sep-16 18:01N 51°57' E 004°11'611.0
2017-Sep-16 17:30N 51°54' E 004°18'1 1.9
2017-Sep-16 16:57N 51°53' E 004°18'0 0.0
2017-Sep-16 16:24N 51°53' E 004°18'0 0.0
2017-Sep-16 15:39N 51°53' E 004°18'0 0.0
2017-Sep-16 15:27N 51°53' E 004°18'0 0.0
2017-Sep-16 14:54N 51°53' E 004°18'0 0.0
2017-Sep-16 14:30N 51°53' E 004°18'0 0.0
2017-Sep-16 14:00N 51°53' E 004°18'0 0.0
2017-Sep-16 13:30N 51°53' E 004°18'0 0.0
2017-Sep-16 12:48N 51°53' E 004°18'0 0.0
2017-Sep-16 12:30N 51°53' E 004°18'0 0.0
2017-Sep-16 11:57N 51°53' E 004°18'0 0.0
2017-Sep-16 11:30N 51°53' E 004°18'0 0.0
2017-Sep-16 11:00N 51°53' E 004°18'0 0.0
2017-Sep-16 10:30N 51°53' E 004°18'0 0.0
2017-Sep-16 09:48N 51°53' E 004°18'0 0.0
2017-Sep-16 09:24N 51°53' E 004°18'0 0.0
2017-Sep-16 09:00N 51°53' E 004°18'0 0.7
2017-Sep-16 08:30N 51°53' E 004°18'0 0.7
2017-Sep-16 08:00N 51°53' E 004°19'0 0.0
2017-Sep-16 07:30N 51°53' E 004°19'0 0.0
2017-Sep-16 07:00N 51°53' E 004°19'0 0.0
2017-Sep-16 06:30N 51°53' E 004°19'0 0.0
2017-Sep-16 06:00N 51°53' E 004°19'0 0.0
2017-Sep-16 05:30N 51°53' E 004°19'0 0.0
2017-Sep-16 05:00N 51°53' E 004°19'0 0.0
2017-Sep-16 04:24N 51°53' E 004°19'0 0.0
2017-Sep-16 03:54N 51°53' E 004°19'0 0.0
2017-Sep-16 03:30N 51°53' E 004°19'0 0.0
2017-Sep-16 03:00N 51°53' E 004°19'0 0.0
2017-Sep-16 02:30N 51°53' E 004°19'0 0.0
2017-Sep-16 02:00N 51°53' E 004°19'0 0.0
2017-Sep-16 01:30N 51°53' E 004°19'0 0.0
2017-Sep-16 01:00N 51°53' E 004°19'0 0.0
2017-Sep-16 00:30N 51°53' E 004°19'0 0.0
2017-Sep-16 00:00N 51°53' E 004°19'0 0.0
2017-Sep-15 23:30N 51°53' E 004°19'0 0.0
2017-Sep-15 23:00N 51°53' E 004°19'0 0.0
2017-Sep-15 22:30N 51°53' E 004°19'0 0.0
2017-Sep-15 22:00N 51°53' E 004°19'0 0.0
2017-Sep-15 21:24N 51°53' E 004°19'0 0.0
2017-Sep-15 21:00N 51°53' E 004°19'0 0.0
2017-Sep-15 20:30N 51°53' E 004°19'0 0.0
2017-Sep-15 20:00N 51°53' E 004°19'0 0.0
2017-Sep-15 19:30N 51°53' E 004°19'0 0.0
2017-Sep-15 19:00N 51°53' E 004°19'0 0.0
2017-Sep-15 18:30N 51°53' E 004°19'0 0.0
2017-Sep-15 18:00N 51°53' E 004°19'0 0.0
2017-Sep-15 17:30N 51°53' E 004°19'0 0.0
2017-Sep-15 17:00N 51°53' E 004°19'0 0.0
2017-Sep-15 16:30N 51°53' E 004°19'0 0.0
2017-Sep-15 16:00N 51°53' E 004°19'0 0.0
2017-Sep-15 15:30N 51°53' E 004°19'0 0.0
2017-Sep-15 15:00N 51°53' E 004°19'0 0.0
2017-Sep-15 14:30N 51°53' E 004°19'0 0.0
2017-Sep-15 14:00N 51°53' E 004°19'0 0.0
2017-Sep-15 13:30N 51°53' E 004°19'0 0.0
2017-Sep-15 13:00N 51°53' E 004°19'0 0.0
2017-Sep-15 12:30N 51°53' E 004°19'1 2.2
2017-Sep-15 12:00N 51°54' E 004°19'2 3.8
2017-Sep-15 11:30N 51°54' E 004°22'0 0.0
2017-Sep-15 10:58N 51°54' E 004°22'0 0.0
2017-Sep-15 10:28N 51°54' E 004°22'0 0.0
2017-Sep-15 09:52N 51°54' E 004°22'0 0.0
2017-Sep-15 09:28N 51°54' E 004°22'0 0.0
2017-Sep-15 08:58N 51°54' E 004°22'0 0.0
2017-Sep-15 08:28N 51°54' E 004°22'0 0.0
2017-Sep-15 07:55N 51°54' E 004°22'0 0.0
2017-Sep-15 07:22N 51°54' E 004°22'0 0.0
2017-Sep-15 06:55N 51°54' E 004°22'0 0.0
2017-Sep-15 06:28N 51°54' E 004°22'0 0.0
2017-Sep-15 05:58N 51°54' E 004°22'0 0.0
2017-Sep-15 05:25N 51°54' E 004°22'0 0.0
2017-Sep-15 04:58N 51°54' E 004°22'0 0.0
2017-Sep-15 04:28N 51°54' E 004°22'0 0.0
2017-Sep-15 03:58N 51°54' E 004°22'0 0.0
2017-Sep-15 03:28N 51°54' E 004°22'0 0.0
2017-Sep-15 02:58N 51°54' E 004°22'0 0.0
2017-Sep-15 02:28N 51°54' E 004°22'0 0.0
2017-Sep-15 01:58N 51°54' E 004°22'0 0.0
2017-Sep-15 01:25N 51°54' E 004°22'0 0.0
2017-Sep-15 00:58N 51°54' E 004°22'0 0.0
2017-Sep-15 00:28N 51°54' E 004°22'0 0.0
2017-Sep-14 23:55N 51°54' E 004°22'0 0.0
2017-Sep-14 23:28N 51°54' E 004°22'0 0.0
2017-Sep-14 22:58N 51°54' E 004°22'0 0.0
2017-Sep-14 22:25N 51°54' E 004°22'0 0.0
2017-Sep-14 21:58N 51°54' E 004°22'0 0.0
2017-Sep-14 21:19N 51°54' E 004°22'0 0.0
2017-Sep-14 20:58N 51°54' E 004°22'0 0.0
2017-Sep-14 20:28N 51°54' E 004°22'0 0.0
2017-Sep-14 19:58N 51°54' E 004°22'0 0.0
2017-Sep-14 19:25N 51°54' E 004°22'0 0.0
2017-Sep-14 18:40N 51°54' E 004°22'0 0.0
2017-Sep-14 18:28N 51°54' E 004°22'0 0.0
2017-Sep-14 17:58N 51°54' E 004°22'0 0.0
2017-Sep-14 17:22N 51°54' E 004°22'0 0.0
2017-Sep-14 16:58N 51°54' E 004°22'0 0.0
2017-Sep-14 16:28N 51°54' E 004°22'0 0.0
2017-Sep-14 15:58N 51°54' E 004°22'0 0.0
2017-Sep-14 15:28N 51°54' E 004°22'0 0.0
2017-Sep-14 14:55N 51°54' E 004°22'0 0.0
2017-Sep-14 14:28N 51°54' E 004°22'0 0.0
2017-Sep-14 13:58N 51°54' E 004°22'0 0.0
2017-Sep-14 13:22N 51°54' E 004°22'0 0.0
2017-Sep-14 12:58N 51°54' E 004°22'0 0.0
2017-Sep-14 12:28N 51°54' E 004°22'0 0.0
2017-Sep-14 11:58N 51°54' E 004°22'0 0.0
2017-Sep-14 11:25N 51°54' E 004°22'0 0.0
2017-Sep-14 10:49N 51°54' E 004°22'0 0.0
2017-Sep-14 10:30N 51°54' E 004°22'0 0.0
2017-Sep-14 10:00N 51°54' E 004°22'0 0.0
2017-Sep-14 09:30N 51°54' E 004°22'0 0.0
2017-Sep-14 09:00N 51°54' E 004°22'0 0.0
2017-Sep-14 08:30N 51°54' E 004°22'0 0.0
2017-Sep-14 08:00N 51°54' E 004°22'0 0.0
2017-Sep-14 07:30N 51°54' E 004°22'0 0.0
2017-Sep-14 07:00N 51°54' E 004°22'0 0.0
2017-Sep-14 06:30N 51°54' E 004°22'0 0.0
2017-Sep-14 06:00N 51°54' E 004°22'0 0.0
2017-Sep-14 05:30N 51°54' E 004°22'0 0.0
2017-Sep-14 05:00N 51°54' E 004°22'0 0.0
2017-Sep-14 04:30N 51°54' E 004°22'0 0.0
2017-Sep-14 04:00N 51°54' E 004°22'0 0.0
2017-Sep-14 03:30N 51°54' E 004°22'  
Track history (hours):
 
Tides and Currents Weather Stations Pressure Air Temp Water Temp Dewpoint Dewpoint Depression Visibility Wind Speed Wind Dir Waves Ship Positions

Oriental Lotus

Last reported at 2017-Sep-24 03:24 UTC. Time now 2017-Oct-23 00:40 UTC.
Position N 36°25' E 014°38'.
Warning: this ship's position is 28 days out of date.

Length 134 m; draft 5.9 m.

Type: Ship (hazmat cat B). MMSI: 319150000.

Date/timePositionNaut miles runAvg speedWind from/ knotsBaromVisibWave heightAir tempDewpointWater temp
2017-Sep-24 03:24N 36°25' E 014°38'614.1
2017-Sep-24 03:00N 36°27' E 014°31'814.0
2017-Sep-24 02:27N 36°29' E 014°22'614.1
2017-Sep-24 02:00N 36°31' E 014°15'714.1
2017-Sep-24 01:30N 36°33' E 014°06'714.0
2017-Sep-24 01:00N 36°35' E 013°58'1713.9
2017-Sep-23 23:46N 36°40' E 013°37'61213.1
2017-Sep-22 01:10N 36°47' E 000°53'213.6
2017-Sep-22 01:00N 36°47' E 000°51'713.6
2017-Sep-22 00:30N 36°46' E 000°42'713.6
2017-Sep-22 00:00N 36°44' E 000°34'713.4
2017-Sep-21 23:28N 36°43' E 000°25'613.3
2017-Sep-21 23:00N 36°42' E 000°18'713.2
2017-Sep-21 22:31N 36°40' E 000°10'713.3
2017-Sep-21 22:00N 36°39' E 000°02'713.2
2017-Sep-21 21:30N 36°38' W 000°06'713.2
2017-Sep-21 21:00N 36°36' W 000°14'713.2
2017-Sep-21 20:29N 36°35' W 000°23'613.2
2017-Sep-21 20:01N 36°34' W 000°31'713.0
2017-Sep-21 19:30N 36°32' W 000°39'713.0
2017-Sep-21 19:00N 36°31' W 000°47'5813.4
2017-Sep-21 14:40N 36°19' W 001°57'213.4
2017-Sep-21 14:29N 36°19' W 002°00'2313.3
2017-Sep-21 12:44N 36°16' W 002°29'13314.3
2017-Sep-21 03:23N 36°00' W 005°13'615.5
2017-Sep-21 03:01N 35°60' W 005°20'714.8
2017-Sep-21 02:30N 35°58' W 005°29'813.1
2017-Sep-21 01:53N 35°56' W 005°39'411.3
2017-Sep-21 01:30N 35°55' W 005°44'711.6
2017-Sep-21 00:55N 35°55' W 005°53'511.8
2017-Sep-21 00:30N 35°55' W 005°58'6512.6
2017-Sep-20 19:24N 36°04' W 007°17'2013.1
2017-Sep-20 17:53N 36°09' W 007°41'1713.7
2017-Sep-20 16:38N 36°13' W 008°02'214.0
2017-Sep-20 16:31N 36°14' W 008°04'814.0
2017-Sep-20 15:58N 36°16' W 008°13'1114.0
2017-Sep-20 15:10N 36°19' W 008°26'313.7
2017-Sep-20 14:58N 36°19' W 008°30'1713.7
2017-Sep-20 13:43N 36°24' W 008°50'413.9
2017-Sep-20 13:27N 36°25' W 008°55'714.2
2017-Sep-20 13:00N 36°26' W 009°02'1913.6
2017-Sep-20 11:35N 36°34' W 009°25'713.8
2017-Sep-20 11:02N 36°39' W 009°31'114.3
2017-Sep-20 10:58N 36°40' W 009°32'613.9
2017-Sep-20 10:30N 36°45' W 009°37'714.0
2017-Sep-20 10:00N 36°51' W 009°39'714.2
2017-Sep-20 09:31N 36°58' W 009°41'714.3
2017-Sep-20 09:00N 37°05' W 009°43'814.0
2017-Sep-20 08:27N 37°13' W 009°46'713.9
2017-Sep-20 07:57N 37°19' W 009°48'714.3
2017-Sep-20 07:29N 37°26' W 009°50'1014.3
2017-Sep-20 06:45N 37°36' W 009°53'313.9
2017-Sep-20 06:30N 37°40' W 009°54'713.8
2017-Sep-20 05:59N 37°47' W 009°56'613.1
2017-Sep-20 05:30N 37°53' W 009°58'713.5
2017-Sep-20 05:00N 37°59' W 009°60'713.6
2017-Sep-20 04:30N 38°06' W 010°01'713.6
2017-Sep-20 04:00N 38°12' W 010°04'713.9
2017-Sep-20 03:30N 38°19' W 010°06'714.5
2017-Sep-20 03:00N 38°26' W 010°08'714.7
2017-Sep-20 02:30N 38°33' W 010°10'714.4
2017-Sep-20 02:00N 38°40' W 010°12'714.4
2017-Sep-20 01:30N 38°48' W 010°12'714.2
2017-Sep-20 01:00N 38°55' W 010°12'714.4
2017-Sep-20 00:30N 39°02' W 010°12'714.5
2017-Sep-20 00:00N 39°09' W 010°12'814.4
2017-Sep-19 23:28N 39°17' W 010°12'914.2
2017-Sep-19 22:49N 39°26' W 010°12'4714.2
2017-Sep-19 19:31N 40°13' W 010°12'113.9
2017-Sep-19 19:26N 40°14' W 010°12'54713.6
2017-Sep-18 03:11N 48°49' W 005°50'212.7
2017-Sep-18 03:00N 48°51' W 005°48'1412.1
2017-Sep-18 01:53N 48°59' W 005°32'512.4
2017-Sep-18 01:28N 49°02' W 005°25'9013.8
2017-Sep-17 18:58N 49°48' W 003°27'613.1
2017-Sep-17 18:31N 49°51' W 003°19'612.6
2017-Sep-17 18:00N 49°54' W 003°10'612.2
2017-Sep-17 17:30N 49°57' W 003°02'612.0
2017-Sep-17 17:00N 49°59' W 002°53'3412.6
2017-Sep-17 14:21N 50°08' W 002°03'514.4
2017-Sep-17 14:01N 50°09' W 001°56'815.0
2017-Sep-17 13:30N 50°11' W 001°44'815.5
2017-Sep-17 13:01N 50°14' W 001°33'816.0
2017-Sep-17 12:31N 50°16' W 001°21'4615.5
2017-Sep-17 09:32N 50°28' W 000°11'014.4
2017-Sep-17 09:30N 50°28' W 000°10'713.9
2017-Sep-17 09:00N 50°30' E 000°00'713.5
2017-Sep-17 08:30N 50°32' E 000°11'713.2
2017-Sep-17 08:00N 50°34' E 000°21'612.7
2017-Sep-17 07:30N 50°35' E 000°30'612.3
2017-Sep-17 07:00N 50°38' E 000°39'612.8
2017-Sep-17 06:30N 50°42' E 000°47'713.1
2017-Sep-17 06:00N 50°46' E 000°55'713.7
2017-Sep-17 05:30N 50°51' E 001°03'714.5
2017-Sep-17 04:59N 50°56' E 001°11'815.4
2017-Sep-17 04:29N 51°01' E 001°21'815.9
2017-Sep-17 04:00N 51°05' E 001°31'815.8
2017-Sep-17 03:30N 51°10' E 001°40'815.0
2017-Sep-17 03:00N 51°16' E 001°48'714.2
2017-Sep-17 02:30N 51°22' E 001°53'713.5
2017-Sep-17 02:01N 51°28' E 001°59'713.1
2017-Sep-17 01:31N 51°33' E 002°07'612.7
2017-Sep-17 01:00N 51°37' E 002°14'5711.4
2017-Sep-16 20:00N 52°03' E 003°36'713.3
2017-Sep-16 19:30N 52°03' E 003°47'5 9.9
2017-Sep-16 19:01N 52°02' E 003°55'611.5
2017-Sep-16 18:31N 51°59' E 004°03'611.3
2017-Sep-16 18:01N 51°57' E 004°11'611.0
2017-Sep-16 17:30N 51°54' E 004°18'1 1.9
2017-Sep-16 16:57N 51°53' E 004°18'0 0.0
2017-Sep-16 16:24N 51°53' E 004°18'0 0.0
2017-Sep-16 15:39N 51°53' E 004°18'0 0.0
2017-Sep-16 15:27N 51°53' E 004°18'0 0.0
2017-Sep-16 14:54N 51°53' E 004°18'0 0.0
2017-Sep-16 14:30N 51°53' E 004°18'0 0.0
2017-Sep-16 14:00N 51°53' E 004°18'0 0.0
2017-Sep-16 13:30N 51°53' E 004°18'0 0.0
2017-Sep-16 12:48N 51°53' E 004°18'0 0.0
2017-Sep-16 12:30N 51°53' E 004°18'0 0.0
2017-Sep-16 11:57N 51°53' E 004°18'0 0.0
2017-Sep-16 11:30N 51°53' E 004°18'0 0.0
2017-Sep-16 11:00N 51°53' E 004°18'0 0.0
2017-Sep-16 10:30N 51°53' E 004°18'0 0.0
2017-Sep-16 09:48N 51°53' E 004°18'0 0.0
2017-Sep-16 09:24N 51°53' E 004°18'0 0.0
2017-Sep-16 09:00N 51°53' E 004°18'0 0.7
2017-Sep-16 08:30N 51°53' E 004°18'0 0.7
2017-Sep-16 08:00N 51°53' E 004°19'0 0.0
2017-Sep-16 07:30N 51°53' E 004°19'0 0.0
2017-Sep-16 07:00N 51°53' E 004°19'0 0.0
2017-Sep-16 06:30N 51°53' E 004°19'0 0.0
2017-Sep-16 06:00N 51°53' E 004°19'0 0.0
2017-Sep-16 05:30N 51°53' E 004°19'0 0.0
2017-Sep-16 05:00N 51°53' E 004°19'0 0.0
2017-Sep-16 04:24N 51°53' E 004°19'0 0.0
2017-Sep-16 03:54N 51°53' E 004°19'0 0.0
2017-Sep-16 03:30N 51°53' E 004°19'0 0.0
2017-Sep-16 03:00N 51°53' E 004°19'0 0.0
2017-Sep-16 02:30N 51°53' E 004°19'0 0.0
2017-Sep-16 02:00N 51°53' E 004°19'0 0.0
2017-Sep-16 01:30N 51°53' E 004°19'0 0.0
2017-Sep-16 01:00N 51°53' E 004°19'0 0.0
2017-Sep-16 00:30N 51°53' E 004°19'0 0.0
2017-Sep-16 00:00N 51°53' E 004°19'0 0.0
2017-Sep-15 23:30N 51°53' E 004°19'0 0.0
2017-Sep-15 23:00N 51°53' E 004°19'0 0.0
2017-Sep-15 22:30N 51°53' E 004°19'0 0.0
2017-Sep-15 22:00N 51°53' E 004°19'0 0.0
2017-Sep-15 21:24N 51°53' E 004°19'0 0.0
2017-Sep-15 21:00N 51°53' E 004°19'0 0.0
2017-Sep-15 20:30N 51°53' E 004°19'0 0.0
2017-Sep-15 20:00N 51°53' E 004°19'0 0.0
2017-Sep-15 19:30N 51°53' E 004°19'0 0.0
2017-Sep-15 19:00N 51°53' E 004°19'0 0.0
2017-Sep-15 18:30N 51°53' E 004°19'0 0.0
2017-Sep-15 18:00N 51°53' E 004°19'0 0.0
2017-Sep-15 17:30N 51°53' E 004°19'0 0.0
2017-Sep-15 17:00N 51°53' E 004°19'0 0.0
2017-Sep-15 16:30N 51°53' E 004°19'0 0.0
2017-Sep-15 16:00N 51°53' E 004°19'0 0.0
2017-Sep-15 15:30N 51°53' E 004°19'0 0.0
2017-Sep-15 15:00N 51°53' E 004°19'0 0.0
2017-Sep-15 14:30N 51°53' E 004°19'0 0.0
2017-Sep-15 14:00N 51°53' E 004°19'0 0.0
2017-Sep-15 13:30N 51°53' E 004°19'0 0.0
2017-Sep-15 13:00N 51°53' E 004°19'0 0.0
2017-Sep-15 12:30N 51°53' E 004°19'1 2.2
2017-Sep-15 12:00N 51°54' E 004°19'2 3.8
2017-Sep-15 11:30N 51°54' E 004°22'0 0.0
2017-Sep-15 10:58N 51°54' E 004°22'0 0.0
2017-Sep-15 10:28N 51°54' E 004°22'0 0.0
2017-Sep-15 09:52N 51°54' E 004°22'0 0.0
2017-Sep-15 09:28N 51°54' E 004°22'0 0.0
2017-Sep-15 08:58N 51°54' E 004°22'0 0.0
2017-Sep-15 08:28N 51°54' E 004°22'0 0.0
2017-Sep-15 07:55N 51°54' E 004°22'0 0.0
2017-Sep-15 07:22N 51°54' E 004°22'0 0.0
2017-Sep-15 06:55N 51°54' E 004°22'0 0.0
2017-Sep-15 06:28N 51°54' E 004°22'0 0.0
2017-Sep-15 05:58N 51°54' E 004°22'0 0.0
2017-Sep-15 05:25N 51°54' E 004°22'0 0.0
2017-Sep-15 04:58N 51°54' E 004°22'0 0.0
2017-Sep-15 04:28N 51°54' E 004°22'0 0.0
2017-Sep-15 03:58N 51°54' E 004°22'0 0.0
2017-Sep-15 03:28N 51°54' E 004°22'0 0.0
2017-Sep-15 02:58N 51°54' E 004°22'0 0.0
2017-Sep-15 02:28N 51°54' E 004°22'0 0.0
2017-Sep-15 01:58N 51°54' E 004°22'0 0.0
2017-Sep-15 01:25N 51°54' E 004°22'0 0.0
2017-Sep-15 00:58N 51°54' E 004°22'0 0.0
2017-Sep-15 00:28N 51°54' E 004°22'0 0.0
2017-Sep-14 23:55N 51°54' E 004°22'0 0.0
2017-Sep-14 23:28N 51°54' E 004°22'0 0.0
2017-Sep-14 22:58N 51°54' E 004°22'0 0.0
2017-Sep-14 22:25N 51°54' E 004°22'0 0.0
2017-Sep-14 21:58N 51°54' E 004°22'0 0.0
2017-Sep-14 21:19N 51°54' E 004°22'0 0.0
2017-Sep-14 20:58N 51°54' E 004°22'0 0.0
2017-Sep-14 20:28N 51°54' E 004°22'0 0.0
2017-Sep-14 19:58N 51°54' E 004°22'0 0.0
2017-Sep-14 19:25N 51°54' E 004°22'0 0.0
2017-Sep-14 18:40N 51°54' E 004°22'0 0.0
2017-Sep-14 18:28N 51°54' E 004°22'0 0.0
2017-Sep-14 17:58N 51°54' E 004°22'0 0.0
2017-Sep-14 17:22N 51°54' E 004°22'0 0.0
2017-Sep-14 16:58N 51°54' E 004°22'0 0.0
2017-Sep-14 16:28N 51°54' E 004°22'0 0.0
2017-Sep-14 15:58N 51°54' E 004°22'0 0.0
2017-Sep-14 15:28N 51°54' E 004°22'0 0.0
2017-Sep-14 14:55N 51°54' E 004°22'0 0.0
2017-Sep-14 14:28N 51°54' E 004°22'0 0.0
2017-Sep-14 13:58N 51°54' E 004°22'0 0.0
2017-Sep-14 13:22N 51°54' E 004°22'0 0.0
2017-Sep-14 12:58N 51°54' E 004°22'0 0.0
2017-Sep-14 12:28N 51°54' E 004°22'0 0.0
2017-Sep-14 11:58N 51°54' E 004°22'0 0.0
2017-Sep-14 11:25N 51°54' E 004°22'0 0.0
2017-Sep-14 10:49N 51°54' E 004°22'0 0.0
2017-Sep-14 10:30N 51°54' E 004°22'0 0.0
2017-Sep-14 10:00N 51°54' E 004°22'0 0.0
2017-Sep-14 09:30N 51°54' E 004°22'0 0.0
2017-Sep-14 09:00N 51°54' E 004°22'0 0.0
2017-Sep-14 08:30N 51°54' E 004°22'0 0.0
2017-Sep-14 08:00N 51°54' E 004°22'0 0.0
2017-Sep-14 07:30N 51°54' E 004°22'0 0.0
2017-Sep-14 07:00N 51°54' E 004°22'0 0.0
2017-Sep-14 06:30N 51°54' E 004°22'0 0.0
2017-Sep-14 06:00N 51°54' E 004°22'0 0.0
2017-Sep-14 05:30N 51°54' E 004°22'0 0.0
2017-Sep-14 05:00N 51°54' E 004°22'0 0.0
2017-Sep-14 04:30N 51°54' E 004°22'0 0.0
2017-Sep-14 04:00N 51°54' E 004°22'0 0.0
2017-Sep-14 03:30N 51°54' E 004°22'  

Dump ship's entire track history